Time;durP1;ratioP1;P1;durP2;ratioP2;P2;SDS_P1;SDS_P2;PMS_P1;PMS_P2;Temp;Humidity;BMP_temperature;BMP_pressure;BME280_temperature;BME280_humidity;BME280_pressure;Samples;Min_cycle;Max_cycle;Signal;HPM_P1;HPM_P2
2023/01/13 00:00:07;;;;;;;1.60;0.90;;;14.10;95.90;;;;;;7362228;19;20006;-82
2023/01/13 00:02:41;;;;;;;6.55;1.20;;;14.20;95.90;;;;;;7364294;19;20038;-80
2023/01/13 00:05:18;;;;;;;1.90;0.82;;;14.40;95.60;;;;;;7365352;19;20028;-81
2023/01/13 00:07:54;;;;;;;4.07;0.80;;;14.40;95.50;;;;;;7364275;19;20103;-80
2023/01/13 00:10:27;;;;;;;4.03;1.05;;;14.50;95.50;;;;;;7387940;19;20022;-80
2023/01/13 00:13:03;;;;;;;15.07;1.02;;;14.20;95.70;;;;;;7367006;19;20014;-80
2023/01/13 00:15:40;;;;;;;5.68;0.85;;;13.80;95.80;;;;;;7365427;19;20006;-81
2023/01/13 00:18:17;;;;;;;5.45;0.80;;;13.50;96.60;;;;;;7365653;19;20028;-81
2023/01/13 00:20:52;;;;;;;4.65;0.50;;;13.30;96.80;;;;;;7362475;19;20014;-80
2023/01/13 00:23:26;;;;;;;3.47;0.85;;;13.00;96.80;;;;;;7365477;19;20029;-80
2023/01/13 00:26:02;;;;;;;6.47;0.85;;;13.10;97.20;;;;;;7364552;19;20018;-80
2023/01/13 00:28:41;;;;;;;7.65;1.35;;;13.00;96.90;;;;;;7363108;19;20075;-80
2023/01/13 00:31:17;;;;;;;1.05;0.45;;;13.20;97.00;;;;;;7385659;19;20086;-80
2023/01/13 00:33:51;;;;;;;3.13;0.70;;;13.20;96.90;;;;;;7359361;19;20038;-80
2023/01/13 00:36:27;;;;;;;7.50;0.63;;;13.20;97.20;;;;;;7362806;19;20079;-80
2023/01/13 00:39:03;;;;;;;2.70;0.60;;;13.30;96.80;;;;;;7362792;19;20022;-80
2023/01/13 00:44:26;;;;;;;5.38;0.63;;;13.40;96.50;;;;;;7368169;19;20049;-80
2023/01/13 00:47:01;;;;;;;9.18;0.90;;;13.50;96.40;;;;;;7372407;19;20021;-80
2023/01/13 00:49:36;;;;;;;5.80;1.00;;;13.60;96.40;;;;;;7368000;19;20014;-79
2023/01/13 00:52:10;;;;;;;4.60;1.00;;;13.60;96.30;;;;;;7391527;19;20015;-80
2023/01/13 00:54:44;;;;;;;6.07;0.82;;;13.60;96.30;;;;;;7367916;19;20019;-80
2023/01/13 00:57:17;;;;;;;3.78;0.77;;;13.70;96.30;;;;;;7371340;19;20017;-80
2023/01/13 00:59:55;;;;;;;10.90;1.00;;;13.80;96.40;;;;;;7370395;19;20462;-80
2023/01/13 01:02:33;;;;;;;3.35;0.85;;;13.80;96.70;;;;;;7366612;19;20097;-81
2023/01/13 01:05:09;;;;;;;6.18;0.70;;;13.80;96.10;;;;;;7368011;19;20022;-80
2023/01/13 01:07:45;;;;;;;1.88;0.45;;;13.80;96.20;;;;;;7366774;19;20018;-80
2023/01/13 01:10:19;;;;;;;1.58;0.55;;;13.80;96.00;;;;;;7391664;19;20018;-80
2023/01/13 01:12:56;;;;;;;4.88;0.50;;;13.60;95.90;;;;;;7365753;19;20088;-80
2023/01/13 01:15:36;;;;;;;1.80;0.68;;;13.60;95.80;;;;;;7366820;19;20461;-80
2023/01/13 01:18:12;;;;;;;3.42;0.70;;;13.40;96.10;;;;;;7369956;19;20039;-80
2023/01/13 01:20:48;;;;;;;1.48;0.45;;;13.50;96.10;;;;;;7370739;19;20123;-80
2023/01/13 01:23:21;;;;;;;6.32;0.80;;;13.50;96.00;;;;;;7369839;19;20034;-80
2023/01/13 01:25:55;;;;;;;4.82;0.70;;;13.60;95.90;;;;;;7369278;19;20022;-80
2023/01/13 01:28:36;;;;;;;5.25;0.60;;;13.50;95.80;;;;;;7391626;19;20021;-80
2023/01/13 01:31:18;;;;;;;8.10;0.80;;;13.50;95.80;;;;;;7371006;19;20022;-80
2023/01/13 01:33:59;;;;;;;5.13;0.98;;;13.60;96.00;;;;;;7370137;19;20014;-80
2023/01/13 01:36:38;;;;;;;11.23;1.10;;;13.50;95.80;;;;;;7368147;19;20034;-80
2023/01/13 01:39:13;;;;;;;4.43;0.50;;;13.60;95.80;;;;;;7367149;19;20019;-80
2023/01/13 01:43:57;;;;;;;6.00;0.88;;;13.60;95.50;;;;;;7366421;19;20010;-80
2023/01/13 01:45:12;;;;;;;6.70;1.15;;;13.60;96.00;;;;;;7370176;19;20015;-80
2023/01/13 01:47:57;;;;;;;12.73;1.35;;;13.60;95.10;;;;;;7369229;19;20635;-80
2023/01/13 01:50:32;;;;;;;9.07;1.30;;;13.50;95.10;;;;;;7364397;19;20015;-80
2023/01/13 01:53:10;;;;;;;13.15;1.50;;;13.30;94.90;;;;;;7364361;19;20022;-81
2023/01/13 01:55:45;;;;;;;5.68;0.98;;;13.40;95.30;;;;;;7365987;19;20022;-80
2023/01/13 01:58:22;;;;;;;13.45;1.50;;;13.50;95.30;;;;;;7389131;19;20074;-80
2023/01/13 02:00:57;;;;;;;10.52;1.52;;;13.50;95.30;;;;;;7369235;19;20011;-80
2023/01/13 02:03:35;;;;;;;7.03;1.40;;;13.40;94.90;;;;;;7366058;19;20105;-80
2023/01/13 02:06:12;;;;;;;7.43;1.13;;;13.30;95.20;;;;;;7364469;19;20014;-79
2023/01/13 02:08:48;;;;;;;6.35;1.10;;;13.40;95.30;;;;;;7367030;19;20019;-80
2023/01/13 02:14:25;;;;;;;10.60;1.25;;;13.30;95.20;;;;;;7368844;19;20111;-80
2023/01/13 02:17:33;;;;;;;11.52;1.20;;;13.40;95.00;;;;;;7367760;19;20105;-81
2023/01/13 02:20:41;;;;;;;8.20;1.08;;;13.30;95.00;;;;;;7369740;19;20018;-80
2023/01/13 02:27:04;;;;;;;8.60;1.33;;;13.30;95.10;;;;;;7368523;19;20018;-80
2023/01/13 02:32:44;;;;;;;8.10;1.02;;;13.10;95.10;;;;;;7367369;19;20029;-79
2023/01/13 02:35:25;;;;;;;11.43;1.38;;;13.10;95.10;;;;;;7364547;19;20433;-79
2023/01/13 02:37:59;;;;;;;10.23;1.02;;;13.00;94.90;;;;;;7367674;19;20316;-79
2023/01/13 02:40:39;;;;;;;6.85;1.35;;;12.80;94.90;;;;;;7373776;19;20065;-79
2023/01/13 02:46:25;;;;;;;9.02;1.35;;;13.00;95.10;;;;;;7367554;19;20007;-79
2023/01/13 02:49:08;;;;;;;6.28;1.58;;;12.90;94.80;;;;;;7367527;19;20098;-80
2023/01/13 02:51:45;;;;;;;9.48;1.25;;;12.80;95.00;;;;;;7366039;19;20015;-79
2023/01/13 02:54:33;;;;;;;11.27;2.00;;;12.90;95.20;;;;;;7366690;19;20030;-79
2023/01/13 02:57:08;;;;;;;13.00;1.65;;;13.00;95.10;;;;;;7365834;19;20022;-80
2023/01/13 02:59:46;;;;;;;11.90;1.75;;;12.90;94.80;;;;;;7364342;19;20044;-80
2023/01/13 03:02:27;;;;;;;8.82;1.17;;;12.90;95.00;;;;;;7365343;19;20026;-80
2023/01/13 03:05:06;;;;;;;8.68;1.23;;;12.80;94.80;;;;;;7356520;19;20027;-80
2023/01/13 03:08:14;;;;;;;12.13;1.73;;;12.90;94.90;;;;;;7361418;19;20018;-80
2023/01/13 03:10:59;;;;;;;15.15;1.70;;;12.80;94.90;;;;;;7365861;19;20023;-80
2023/01/13 03:13:53;;;;;;;8.82;1.38;;;12.80;94.90;;;;;;7369566;19;20039;-79
2023/01/13 03:16:40;;;;;;;12.20;1.38;;;12.70;95.00;;;;;;7393465;19;20039;-80
2023/01/13 03:19:31;;;;;;;13.18;1.70;;;12.70;94.90;;;;;;7369677;19;20007;-80
2023/01/13 03:22:14;;;;;;;7.20;1.25;;;12.70;94.90;;;;;;7366827;19;20030;-81
2023/01/13 03:24:52;;;;;;;7.47;1.08;;;12.70;94.80;;;;;;7345662;19;20503;-80
2023/01/13 03:27:30;;;;;;;10.52;1.63;;;12.70;94.80;;;;;;7366035;19;20101;-80
2023/01/13 03:30:15;;;;;;;14.10;1.20;;;12.70;94.70;;;;;;7368856;19;20460;-81
2023/01/13 03:32:57;;;;;;;13.20;1.23;;;12.80;94.80;;;;;;7368258;19;20025;-81
2023/01/13 03:35:43;;;;;;;16.17;1.58;;;12.70;94.10;;;;;;7365379;19;20010;-80
2023/01/13 03:38:22;;;;;;;13.38;1.40;;;12.70;94.80;;;;;;7365534;19;20100;-80
2023/01/13 03:40:59;;;;;;;9.20;1.50;;;12.80;94.70;;;;;;7362901;19;20018;-80
2023/01/13 03:46:28;;;;;;;5.68;1.20;;;12.60;94.80;;;;;;7387882;19;20018;-80
2023/01/13 03:49:06;;;;;;;10.80;1.48;;;12.60;94.90;;;;;;7366006;19;20018;-81
2023/01/13 03:51:46;;;;;;;9.70;1.35;;;12.50;94.40;;;;;;7361499;19;20017;-80
2023/01/13 03:54:27;;;;;;;8.95;1.42;;;12.40;94.80;;;;;;7363928;19;20046;-80
2023/01/13 03:57:06;;;;;;;15.48;1.40;;;12.40;94.40;;;;;;7366061;19;20089;-80
2023/01/13 03:59:49;;;;;;;8.32;0.95;;;12.60;94.40;;;;;;7352441;19;20121;-80
2023/01/13 04:02:36;;;;;;;10.90;1.58;;;12.60;93.90;;;;;;7363140;19;20018;-80
2023/01/13 04:05:28;;;;;;;6.53;1.15;;;12.60;93.70;;;;;;7349796;19;20026;-80
2023/01/13 04:08:23;;;;;;;16.92;1.42;;;12.60;93.80;;;;;;7351043;19;20018;-80
2023/01/13 04:11:19;;;;;;;6.72;1.20;;;12.50;94.00;;;;;;7362139;19;20021;-80
2023/01/13 04:14:01;;;;;;;8.20;1.30;;;12.60;94.00;;;;;;7364989;19;20327;-80
2023/01/13 04:16:55;;;;;;;12.93;1.35;;;12.50;93.70;;;;;;7360064;19;20018;-79
2023/01/13 04:19:44;;;;;;;7.90;1.80;;;12.40;94.00;;;;;;7388502;19;20011;-80
2023/01/13 04:22:24;;;;;;;13.68;1.58;;;12.40;94.10;;;;;;7367636;19;20011;-80
2023/01/13 04:25:10;;;;;;;9.95;1.42;;;12.30;93.90;;;;;;7368381;19;20014;-80
2023/01/13 04:27:47;;;;;;;6.68;1.20;;;12.30;93.60;;;;;;7367832;19;20017;-80
2023/01/13 04:30:31;;;;;;;12.60;1.35;;;12.20;94.10;;;;;;7354696;19;20019;-80
2023/01/13 04:33:10;;;;;;;6.88;1.17;;;12.30;93.50;;;;;;7359218;19;20326;-81
2023/01/13 04:35:58;;;;;;;6.55;1.40;;;12.30;93.40;;;;;;7361030;19;20015;-80
2023/01/13 04:38:36;;;;;;;9.63;1.23;;;12.50;93.50;;;;;;7360798;19;20025;-80
2023/01/13 04:41:16;;;;;;;9.75;1.55;;;12.40;93.30;;;;;;7358129;19;20032;-80
2023/01/13 04:43:51;;;;;;;8.07;1.35;;;12.30;93.10;;;;;;7363797;19;20525;-80
2023/01/13 04:46:33;;;;;;;11.50;1.65;;;12.10;92.70;;;;;;7384208;19;20676;-81
2023/01/13 04:49:06;;;;;;;;;;;12.00;93.10;;;;;;7366308;19;20438;-81
2023/01/13 04:51:44;;;;;;;14.32;1.60;;;12.20;93.10;;;;;;7363280;19;20431;-81
2023/01/13 04:54:28;;;;;;;8.88;1.77;;;12.20;93.10;;;;;;7361666;19;20030;-80
2023/01/13 04:57:17;;;;;;;22.33;1.60;;;12.20;93.00;;;;;;7354534;19;20014;-80
2023/01/13 04:59:55;;;;;;;8.48;1.25;;;11.90;93.00;;;;;;7362021;19;20029;-81
2023/01/13 05:02:32;;;;;;;20.05;1.50;;;12.00;92.60;;;;;;7361280;19;20018;-79
2023/01/13 05:05:10;;;;;;;8.77;1.30;;;11.90;92.70;;;;;;7357647;19;20014;-80
2023/01/13 05:07:48;;;;;;;7.95;1.33;;;11.90;92.80;;;;;;7363498;19;20649;-80
2023/01/13 05:10:28;;;;;;;12.48;2.05;;;12.10;92.60;;;;;;7388018;19;20659;-80
2023/01/13 05:18:54;;;;;;;14.35;1.65;;;12.10;92.10;;;;;;7362001;19;20022;-80
2023/01/13 05:26:57;;;;;;;14.23;1.88;;;12.20;91.90;;;;;;7371831;19;20319;-81
2023/01/13 05:29:41;;;;;;;13.07;2.60;;;12.20;91.90;;;;;;7361715;19;20026;-81
2023/01/13 05:32:19;;;;;;;13.68;1.50;;;12.20;91.90;;;;;;7362145;19;20125;-80
2023/01/13 05:35:00;;;;;;;10.82;1.55;;;12.10;91.80;;;;;;7361729;19;20091;-80
2023/01/13 05:37:42;;;;;;;20.48;1.80;;;12.00;91.80;;;;;;7363870;19;20031;-81
2023/01/13 05:43:27;;;;;;;16.80;1.52;;;11.80;92.00;;;;;;7372551;19;20045;-81
2023/01/13 05:46:07;;;;;;;11.05;1.77;;;11.80;92.00;;;;;;7371620;19;20011;-80
2023/01/13 05:48:42;;;;;;;11.50;2.03;;;12.00;91.80;;;;;;7369850;19;20018;-80
2023/01/13 05:51:37;;;;;;;13.80;2.38;;;12.20;91.60;;;;;;7366684;19;20014;-80
2023/01/13 05:54:18;;;;;;;16.52;1.92;;;12.10;91.00;;;;;;7369223;19;20025;-80
2023/01/13 05:56:54;;;;;;;25.35;2.53;;;12.00;91.40;;;;;;7362521;19;20018;-80
2023/01/13 05:59:30;;;;;;;7.15;1.60;;;12.10;91.60;;;;;;7370594;19;20042;-80
2023/01/13 06:02:09;;;;;;;15.23;1.92;;;12.00;92.70;;;;;;7368042;19;20010;-80
2023/01/13 06:04:46;;;;;;;19.08;1.98;;;12.10;92.20;;;;;;7369094;19;20019;-81
2023/01/13 06:07:25;;;;;;;14.98;1.98;;;12.20;91.30;;;;;;7391439;19;20015;-81
2023/01/13 06:10:25;;;;;;;13.15;1.80;;;12.20;90.70;;;;;;7372173;19;20024;-80
2023/01/13 06:13:18;;;;;;;11.00;1.40;;;12.00;91.00;;;;;;7371215;19;20022;-81
2023/01/13 06:19:47;;;;;;;15.00;2.50;;;12.20;90.70;;;;;;7366342;19;20007;-81
2023/01/13 06:22:50;;;;;;;10.48;2.00;;;12.20;90.50;;;;;;7349928;19;20124;-80
2023/01/13 06:25:55;;;;;;;14.77;2.53;;;12.30;90.40;;;;;;7396306;19;20090;-81
2023/01/13 06:28:36;;;;;;;15.68;2.13;;;12.30;90.50;;;;;;7272373;19;2004399;-80
2023/01/13 06:31:17;;;;;;;13.60;2.00;;;12.10;90.50;;;;;;7396000;19;20727;-80
2023/01/13 06:33:58;;;;;;;14.88;1.92;;;12.10;90.50;;;;;;7370304;19;20018;-80
2023/01/13 06:36:40;;;;;;;17.45;2.35;;;12.20;90.50;;;;;;7366730;19;20022;-80
2023/01/13 06:39:18;;;;;;;13.18;1.92;;;12.20;90.50;;;;;;7369780;19;20027;-81
2023/01/13 06:45:10;;;;;;;15.23;2.30;;;12.40;90.40;;;;;;7367877;19;20027;-80
2023/01/13 06:47:48;;;;;;;20.48;2.03;;;12.40;90.30;;;;;;7364994;19;20356;-80
2023/01/13 06:50:29;;;;;;;10.82;1.63;;;12.40;90.20;;;;;;7365026;19;20055;-81
2023/01/13 06:53:09;;;;;;;17.48;2.30;;;12.40;90.30;;;;;;7362521;19;20034;-80
2023/01/13 06:55:48;;;;;;;24.02;2.15;;;12.40;90.20;;;;;;7358522;19;20457;-81
2023/01/13 06:58:25;;;;;;;14.45;1.92;;;12.30;90.10;;;;;;7386306;19;20011;-81
2023/01/13 07:01:05;;;;;;;18.45;2.35;;;12.30;90.10;;;;;;7367221;19;20101;-80
2023/01/13 07:03:43;;;;;;;18.67;2.27;;;12.20;90.30;;;;;;7367222;19;20025;-80
2023/01/13 07:06:14;;;;;;;11.50;1.85;;;12.30;90.40;;;;;;7366872;19;20031;-80
2023/01/13 07:08:53;;;;;;;16.30;1.88;;;12.30;90.30;;;;;;7366673;19;20014;-80
2023/01/13 07:11:25;;;;;;;14.85;2.03;;;12.30;90.20;;;;;;7364413;19;20022;-79
2023/01/13 07:16:43;;;;;;;17.23;2.30;;;12.10;90.30;;;;;;7359659;19;20022;-80
2023/01/13 07:19:22;;;;;;;20.48;3.42;;;12.10;90.40;;;;;;7386760;19;20018;-80
2023/01/13 07:21:56;;;;;;;16.00;2.55;;;12.20;90.50;;;;;;7367796;19;20014;-81
2023/01/13 07:24:35;;;;;;;17.25;2.20;;;12.30;90.50;;;;;;7365527;19;20014;-81
2023/01/13 07:27:15;;;;;;;22.40;3.22;;;12.30;90.60;;;;;;7358065;19;20010;-81
2023/01/13 07:29:58;;;;;;;25.73;3.65;;;12.30;90.20;;;;;;7367314;19;20038;-81
